Time;durP1;ratioP1;P1;durP2;ratioP2;P2;SDS_P1;SDS_P2;PMS_P1;PMS_P2;Temp;Humidity;BMP_temperature;BMP_pressure;BME280_temperature;BME280_humidity;BME280_pressure;Samples;Min_cycle;Max_cycle;Signal;HPM_P1;HPM_P2
2022/01/28 00:01:45;;;;;;;16.83;2.97;;;;;;;5.28;100.00;102964.38;5091901;28;20458;-52
2022/01/28 00:04:15;;;;;;;17.42;3.20;;;;;;;5.34;100.00;102976.69;5092812;28;20032;-56
2022/01/28 00:06:41;;;;;;;14.40;2.60;;;;;;;5.28;100.00;102979.16;5093054;28;20052;-56
2022/01/28 00:09:07;;;;;;;17.88;3.15;;;;;;;5.35;100.00;102997.59;5091663;28;20105;-54
2022/01/28 00:11:33;;;;;;;16.08;3.40;;;;;;;5.39;100.00;103004.66;5091743;28;20052;-55
2022/01/28 00:14:51;;;;;;;14.75;2.72;;;;;;;5.06;100.00;102939.47;5092713;28;20028;-58
2022/01/28 00:38:30;;;;;;;17.33;4.20;;;;;;;5.10;100.00;102920.44;5092682;28;20093;-54
2022/01/28 00:40:55;;;;;;;15.43;3.00;;;;;;;5.50;100.00;102989.22;5092291;28;20036;-54
2022/01/28 00:43:21;;;;;;;17.33;2.92;;;;;;;5.51;100.00;102993.63;5092320;28;20036;-54
2022/01/28 00:45:47;;;;;;;19.27;3.15;;;;;;;5.50;100.00;102997.06;5092298;28;20035;-54
2022/01/28 00:48:12;;;;;;;17.75;2.72;;;;;;;5.02;100.00;102924.59;5092401;28;20036;-53
2022/01/28 00:50:37;;;;;;;12.65;2.80;;;;;;;5.44;100.00;103007.38;5092166;28;20067;-52
2022/01/28 00:53:03;;;;;;;16.20;3.00;;;;;;;5.46;100.00;103018.72;5092618;28;20039;-51
2022/01/28 00:55:28;;;;;;;23.90;3.63;;;;;;;5.44;100.00;103023.94;5092010;28;20177;-53
2022/01/28 00:57:54;;;;;;;14.43;2.50;;;;;;;5.37;100.00;103011.56;5092111;28;20036;-51
2022/01/28 01:00:19;;;;;;;20.70;3.03;;;;;;;5.50;100.00;103031.03;5092086;28;20036;-53
2022/01/28 01:02:45;;;;;;;11.95;2.15;;;;;;;5.13;100.00;102952.69;5092073;28;20036;-53
2022/01/28 01:05:10;;;;;;;14.25;2.63;;;;;;;5.50;100.00;103024.06;5107790;28;20057;-57
2022/01/28 01:07:37;;;;;;;10.70;2.30;;;;;;;5.52;100.00;103030.19;5092130;28;20498;-56
2022/01/28 01:10:04;;;;;;;19.50;3.00;;;;;;;5.54;100.00;103025.03;5090722;28;20040;-56
2022/01/28 01:12:32;;;;;;;18.17;2.80;;;;;;;5.57;100.00;103027.72;5090788;28;20127;-50
2022/01/28 01:14:58;;;;;;;17.88;3.20;;;;;;;5.53;100.00;103031.09;5090953;28;20168;-57
2022/01/28 01:17:37;;;;;;;16.40;3.15;;;;;;;5.05;100.00;102945.53;5092163;28;20032;-54
2022/01/28 01:23:06;;;;;;;24.65;3.60;;;;;;;5.50;100.00;103031.03;5072004;28;20044;-49
2022/01/28 01:25:42;;;;;;;13.30;3.13;;;;;;;5.48;100.00;103032.72;5091978;28;20032;-54
2022/01/28 01:28:09;;;;;;;16.10;2.70;;;;;;;5.41;100.00;103038.63;5090702;28;20059;-57
2022/01/28 01:30:39;;;;;;;35.60;3.97;;;;;;;5.28;100.00;103020.94;5093855;28;20036;-50
2022/01/28 01:33:05;;;;;;;21.35;3.17;;;;;;;5.33;100.00;103048.91;5094235;28;20490;-58
2022/01/28 01:35:32;;;;;;;20.45;3.10;;;;;;;5.23;100.00;103061.69;5094408;28;20028;-51
2022/01/28 01:37:57;;;;;;;18.75;3.75;;;;;;;4.64;100.00;102948.00;5094577;28;20443;-52
2022/01/28 01:40:28;;;;;;;16.58;2.97;;;;;;;5.18;100.00;103047.66;5094433;28;20070;-54
2022/01/28 01:43:07;;;;;;;;;;;;;;;5.19;100.00;103047.69;5096071;28;20039;-53
2022/01/28 01:53:26;;;;;;;24.20;2.70;;;;;;;5.32;100.00;103044.53;5095503;28;20047;-56
2022/01/28 01:55:51;;;;;;;25.75;3.45;;;;;;;5.56;100.00;103058.19;5094004;28;20036;-53
2022/01/28 01:58:24;;;;;;;22.60;3.33;;;;;;;5.64;100.00;103061.84;5094155;28;20036;-53
2022/01/28 02:00:49;;;;;;;18.90;2.88;;;;;;;5.71;100.00;103068.09;5094407;28;20032;-52
2022/01/28 02:03:15;;;;;;;19.83;3.35;;;;;;;5.84;100.00;103069.28;5095142;28;20028;-52
2022/01/28 02:05:40;;;;;;;16.83;2.78;;;;;;;5.49;100.00;102996.19;5095020;28;20479;-55
2022/01/28 02:08:06;;;;;;;15.00;2.67;;;;;;;5.92;100.00;103063.41;5076792;28;20039;-55
2022/01/28 02:10:34;;;;;;;13.52;2.33;;;;;;;5.47;100.00;103004.81;5093820;28;20065;-51
2022/01/28 02:13:00;;;;;;;8.32;1.77;;;;;;;5.69;100.00;103064.56;5094861;28;20030;-57
2022/01/28 02:15:25;;;;;;;11.07;2.00;;;;;;;5.64;100.00;103090.59;5095158;28;20111;-58
2022/01/28 02:17:50;;;;;;;11.80;1.83;;;;;;;5.54;100.00;103085.13;5095116;28;20440;-52
2022/01/28 02:20:43;;;;;;;11.43;2.08;;;;;;;5.44;100.00;103090.94;5093631;28;20447;-52
2022/01/28 02:23:09;;;;;;;10.75;1.58;;;;;;;4.85;100.00;103006.81;5094808;28;20036;-55
2022/01/28 02:25:34;;;;;;;15.52;2.05;;;;;;;5.16;100.00;103091.13;5093307;28;20395;-59
2022/01/28 02:28:03;;;;;;;5.82;1.80;;;;;;;5.06;100.00;103077.81;5095366;28;20031;-51
2022/01/28 02:30:29;;;;;;;13.63;2.30;;;;;;;4.58;100.00;103008.72;5094926;28;20120;-55
2022/01/28 02:33:01;;;;;;;10.85;2.33;;;;;;;4.40;100.00;102990.84;5094906;28;20431;-53
2022/01/28 02:35:27;;;;;;;21.67;2.45;;;;;;;4.36;100.00;102995.94;5094901;28;20040;-51
2022/01/28 02:37:52;;;;;;;13.35;2.72;;;;;;;4.80;100.00;103077.97;5094540;28;20229;-55
2022/01/28 02:40:18;;;;;;;20.45;2.53;;;;;;;4.71;100.00;103078.63;5094199;28;20028;-54
2022/01/28 02:42:57;;;;;;;16.45;3.10;;;;;;;4.58;100.00;103070.44;5093183;28;20042;-56
2022/01/28 02:45:34;;;;;;;17.30;3.30;;;;;;;4.62;100.00;103082.69;5094513;28;20111;-54
2022/01/28 02:48:03;;;;;;;31.25;3.83;;;;;;;4.61;100.00;103074.00;5077757;28;20372;-56
2022/01/28 02:50:36;;;;;;;22.73;3.78;;;;;;;4.63;100.00;103076.66;5093133;28;20522;-51
2022/01/28 02:53:05;;;;;;;23.08;3.78;;;;;;;4.25;100.00;103005.19;5093206;28;20047;-57
2022/01/28 02:55:36;;;;;;;21.27;4.07;;;;;;;4.67;100.00;103083.72;5094286;28;20099;-52
2022/01/28 02:58:17;;;;;;;21.20;3.40;;;;;;;4.69;100.00;103082.91;5094138;28;20127;-56
2022/01/28 03:00:43;;;;;;;19.25;3.10;;;;;;;4.76;100.00;103086.59;5094090;28;20067;-52
2022/01/28 03:03:09;;;;;;;17.27;3.03;;;;;;;4.39;100.00;103004.72;5075760;28;20040;-57
2022/01/28 03:05:35;;;;;;;21.48;2.88;;;;;;;4.84;100.00;103075.50;5092694;28;20052;-52
2022/01/28 03:08:03;;;;;;;22.90;3.17;;;;;;;4.92;100.00;103096.59;5094013;28;20028;-55
2022/01/28 03:15:33;;;;;;;23.38;3.10;;;;;;;4.80;100.00;103080.59;5093674;28;20555;-53
2022/01/28 03:18:16;;;;;;;18.63;2.55;;;;;;;4.98;100.00;103102.84;5092672;28;20093;-56
2022/01/28 03:20:55;;;;;;;23.27;3.28;;;;;;;4.67;100.00;103061.09;5092747;28;20024;-55
2022/01/28 03:23:20;;;;;;;18.58;3.90;;;;;;;4.51;100.00;103032.84;5093589;28;20475;-52
2022/01/28 03:25:47;;;;;;;20.05;2.63;;;;;;;4.75;100.00;103090.03;5092323;28;20032;-52
2022/01/28 03:28:19;;;;;;;18.23;2.92;;;;;;;4.88;100.00;103110.38;5092240;28;20069;-54
2022/01/28 03:30:44;;;;;;;15.00;3.03;;;;;;;4.95;100.00;103105.38;5092464;28;20028;-53
2022/01/28 03:33:10;;;;;;;15.27;3.67;;;;;;;4.94;100.00;103106.22;5109072;28;20494;-55
2022/01/28 03:35:35;;;;;;;12.93;2.83;;;;;;;4.55;100.00;103042.53;5093592;28;20040;-54
2022/01/28 03:38:03;;;;;;;24.45;3.33;;;;;;;4.46;100.00;103037.06;5093518;28;20127;-52
2022/01/28 03:40:33;;;;;;;15.02;2.38;;;;;;;4.58;100.00;103055.66;5093344;28;20368;-55
2022/01/28 03:42:58;;;;;;;15.68;2.53;;;;;;;4.96;100.00;103103.66;5092321;28;20035;-50
2022/01/28 03:45:24;;;;;;;15.00;2.67;;;;;;;5.00;100.00;103124.66;5093154;28;20047;-54
2022/01/28 03:47:49;;;;;;;16.35;3.05;;;;;;;4.71;100.00;103067.28;5093636;28;20036;-53
2022/01/28 03:50:15;;;;;;;18.33;3.05;;;;;;;5.08;100.00;103136.16;5093303;28;20422;-50
2022/01/28 03:52:40;;;;;;;15.80;2.38;;;;;;;4.92;100.00;103120.06;5092569;28;20111;-54
2022/01/28 03:55:06;;;;;;;17.98;2.03;;;;;;;5.02;100.00;103150.81;5074943;28;20028;-55
2022/01/28 03:57:32;;;;;;;11.95;2.10;;;;;;;4.93;100.00;103140.97;5093083;28;20059;-56
2022/01/28 03:59:57;;;;;;;22.90;2.45;;;;;;;4.48;100.00;103070.16;5091830;28;20487;-57
2022/01/28 04:02:27;;;;;;;9.68;2.20;;;;;;;4.90;100.00;103159.16;5093283;28;20040;-52
2022/01/28 04:12:49;;;;;;;17.85;2.97;;;;;;;4.23;100.00;103096.38;5093223;28;20071;-56
2022/01/28 04:17:58;;;;;;;14.77;2.80;;;;;;;4.56;100.00;103148.63;5092962;28;20117;-52
2022/01/28 04:20:24;;;;;;;13.23;2.13;;;;;;;4.15;100.00;103087.44;5093433;28;20032;-54
2022/01/28 04:22:49;;;;;;;14.23;2.65;;;;;;;4.52;100.00;103168.50;5092651;28;20122;-54
2022/01/28 04:25:15;;;;;;;16.30;2.50;;;;;;;4.45;100.00;103169.19;5091420;28;20105;-56
2022/01/28 04:27:40;;;;;;;16.90;2.53;;;;;;;4.29;100.00;103159.13;5092561;28;20036;-54
2022/01/28 04:30:06;;;;;;;20.30;2.58;;;;;;;4.28;100.00;103167.78;5092673;28;20043;-49
2022/01/28 04:32:32;;;;;;;17.67;2.50;;;;;;;4.28;100.00;103180.84;5092406;28;20028;-53
2022/01/28 04:34:59;;;;;;;14.27;2.60;;;;;;;4.24;100.00;103180.66;5092496;28;20031;-54
2022/01/28 04:37:37;;;;;;;20.27;3.15;;;;;;;4.22;100.00;103183.25;5092749;28;20028;-48
2022/01/28 04:43:19;;;;;;;16.27;2.45;;;;;;;4.18;100.00;103180.47;5092306;28;20040;-54
2022/01/28 04:50:44;;;;;;;15.27;3.03;;;;;;;3.97;100.00;103172.88;5091138;28;20040;-52
2022/01/28 04:56:24;;;;;;;14.32;3.30;;;;;;;4.01;100.00;103186.91;5054118;28;20048;-53
2022/01/28 05:07:19;;;;;;;16.55;2.47;;;;;;;3.63;100.00;103173.53;5098765;28;20395;-51
2022/01/28 05:23:30;;;;;;;15.35;2.08;;;;;;;3.04;100.00;103119.44;5097520;28;20054;-51
2022/01/28 05:26:23;;;;;;;13.73;2.35;;;;;;;3.45;100.00;103196.34;5097340;28;20032;-53
2022/01/28 05:28:48;;;;;;;;;;;;;;;3.44;100.00;103198.91;5098653;28;20072;-51
2022/01/28 05:31:14;;;;;;;17.55;2.60;;;;;;;3.38;100.00;103208.28;5098214;28;19953;-53
2022/01/28 05:33:39;;;;;;;19.55;3.28;;;;;;;2.88;100.00;103122.34;5097207;28;20032;-58
2022/01/28 05:36:05;;;;;;;11.40;2.58;;;;;;;3.22;100.00;103192.94;5097301;28;20548;-52
2022/01/28 05:38:30;;;;;;;16.90;2.15;;;;;;;3.32;100.00;103204.56;5098585;28;20064;-54
2022/01/28 05:40:55;;;;;;;18.23;2.88;;;;;;;3.31;100.00;103201.09;5098139;28;20028;-54
2022/01/28 05:43:20;;;;;;;13.13;2.20;;;;;;;3.29;100.00;103199.25;5098341;28;20047;-50
2022/01/28 05:45:46;;;;;;;18.48;2.65;;;;;;;3.30;100.00;103214.91;5098595;28;20048;-55
2022/01/28 05:48:12;;;;;;;20.48;2.40;;;;;;;3.30;100.00;103214.91;5098417;28;20035;-56
2022/01/28 05:50:37;;;;;;;18.33;2.00;;;;;;;3.16;100.00;103192.72;5098576;28;20035;-50
2022/01/28 05:53:03;;;;;;;14.30;2.10;;;;;;;2.79;100.00;103125.53;5097066;28;20490;-55
2022/01/28 05:55:28;;;;;;;11.35;3.10;;;;;;;3.15;100.00;103197.91;5098356;28;20024;-52
2022/01/28 05:57:54;;;;;;;18.83;2.45;;;;;;;3.18;100.00;103218.81;5080194;28;20043;-52
2022/01/28 06:00:19;;;;;;;10.73;2.17;;;;;;;3.19;100.00;103225.78;5098103;28;20059;-51
2022/01/28 06:02:45;;;;;;;16.38;2.40;;;;;;;3.20;100.00;103231.06;5098197;28;20485;-50
2022/01/28 06:05:11;;;;;;;10.57;2.80;;;;;;;3.11;100.00;103225.53;5097934;28;20076;-52
2022/01/28 06:07:41;;;;;;;12.75;2.08;;;;;;;3.08;100.00;103233.22;5098378;28;20034;-53
2022/01/28 06:10:11;;;;;;;15.97;2.47;;;;;;;2.69;100.00;103182.31;5098159;28;20024;-55
2022/01/28 06:12:44;;;;;;;13.32;2.20;;;;;;;2.91;100.00;103243.84;5079986;28;20232;-55
2022/01/28 06:15:10;;;;;;;16.58;2.80;;;;;;;2.45;100.00;103178.84;5097514;28;20035;-55
2022/01/28 06:17:36;;;;;;;12.73;2.10;;;;;;;2.84;100.00;103250.53;5094821;28;20031;-56
2022/01/28 06:20:04;;;;;;;17.98;2.35;;;;;;;2.77;100.00;103246.78;5095064;28;20390;-53
2022/01/28 06:22:29;;;;;;;19.60;3.28;;;;;;;2.66;100.00;103242.00;5093659;28;20121;-54
2022/01/28 06:24:55;;;;;;;16.23;3.03;;;;;;;2.59;100.00;103261.72;5094810;28;20032;-53
2022/01/28 06:27:22;;;;;;;21.67;2.60;;;;;;;2.41;100.00;103253.19;5094938;28;20398;-55
2022/01/28 06:29:47;;;;;;;13.43;2.25;;;;;;;2.36;100.00;103270.34;5094909;28;20412;-58
2022/01/28 06:32:12;;;;;;;17.67;2.30;;;;;;;2.34;100.00;103271.06;5094843;28;20039;-52
2022/01/28 06:34:38;;;;;;;13.15;2.70;;;;;;;2.26;100.00;103275.97;5094703;28;20172;-54
2022/01/28 06:37:05;;;;;;;20.05;2.83;;;;;;;2.19;100.00;103279.13;5094713;28;20391;-55
2022/01/28 06:39:32;;;;;;;21.13;2.58;;;;;;;2.08;100.00;103267.44;5094680;28;20460;-53
2022/01/28 06:41:58;;;;;;;18.35;3.25;;;;;;;2.03;100.00;103284.56;5093204;28;20117;-54
2022/01/28 06:44:24;;;;;;;17.45;2.47;;;;;;;2.06;100.00;103295.06;5094629;28;20032;-54
2022/01/28 06:46:49;;;;;;;12.35;2.17;;;;;;;1.98;100.00;103304.25;5094658;28;20078;-55
2022/01/28 06:49:14;;;;;;;18.67;2.92;;;;;;;1.48;100.00;103229.44;5094522;28;20064;-54
2022/01/28 06:51:40;;;;;;;15.43;2.42;;;;;;;1.85;100.00;103307.16;5094272;28;20150;-53
2022/01/28 06:54:05;;;;;;;18.98;2.97;;;;;;;1.80;100.00;103325.16;5094145;28;20475;-54
2022/01/28 06:56:30;;;;;;;21.23;2.75;;;;;;;1.75;100.00;103320.59;5093088;28;20044;-58
2022/01/28 06:58:56;;;;;;;14.57;2.65;;;;;;;1.68;100.00;103319.44;5094623;28;20040;-54
2022/01/28 07:01:21;;;;;;;16.08;3.03;;;;;;;1.34;100.00;103257.41;5094379;28;20043;-54
2022/01/28 07:03:46;;;;;;;11.68;2.45;;;;;;;1.57;100.00;103316.38;5094156;28;20094;-52
2022/01/28 07:06:13;;;;;;;15.07;3.35;;;;;;;1.58;100.00;103323.31;5094259;28;20515;-55
2022/01/28 07:08:39;;;;;;;10.13;3.25;;;;;;;1.65;100.00;103330.56;5093937;28;20032;-56
2022/01/28 07:11:04;;;;;;;21.40;3.17;;;;;;;1.67;100.00;103323.72;5092518;28;20139;-49
2022/01/28 07:13:29;;;;;;;14.95;2.97;;;;;;;1.63;100.00;103316.63;5093761;28;20040;-53
2022/01/28 07:15:55;;;;;;;16.23;3.20;;;;;;;1.49;100.00;103302.16;5094124;28;20103;-55
2022/01/28 07:18:20;;;;;;;15.82;3.50;;;;;;;1.58;100.00;103325.91;5092598;28;20036;-54
2022/01/28 07:20:46;;;;;;;20.10;3.25;;;;;;;1.59;100.00;103325.13;5093940;28;20445;-50
2022/01/28 07:23:11;;;;;;;22.02;4.00;;;;;;;1.54;100.00;103317.94;5091905;28;20123;-52
2022/01/28 07:25:37;;;;;;;14.20;3.38;;;;;;;1.53;100.00;103321.34;5093546;28;20028;-57
2022/01/28 07:28:02;;;;;;;16.13;3.53;;;;;;;1.07;100.00;103246.69;5092149;28;20032;-52
2022/01/28 07:30:28;;;;;;;20.75;4.07;;;;;;;1.44;100.00;103334.81;5109262;28;20450;-51
2022/01/28 07:32:54;;;;;;;14.43;3.22;;;;;;;1.48;100.00;103315.97;5092902;28;20032;-53
2022/01/28 07:35:19;;;;;;;14.93;3.45;;;;;;;1.11;100.00;103246.00;5093009;28;20387;-51
2022/01/28 07:37:45;;;;;;;15.43;3.45;;;;;;;1.55;100.00;103325.78;5093288;28;20036;-50
2022/01/28 07:40:11;;;;;;;15.13;3.40;;;;;;;1.51;100.00;103316.09;5091952;28;20036;-53
2022/01/28 07:42:37;;;;;;;24.88;4.53;;;;;;;1.58;100.00;103331.13;5093218;28;20036;-52
2022/01/28 07:45:04;;;;;;;15.95;4.40;;;;;;;1.21;100.00;103277.53;5092014;28;20039;-52
2022/01/28 07:47:29;;;;;;;17.98;3.92;;;;;;;1.60;100.00;103347.66;5075306;28;20032;-56
2022/01/28 07:49:55;;;;;;;16.73;3.60;;;;;;;1.58;100.00;103353.59;5093476;28;20032;-58
2022/01/28 07:52:20;;;;;;;13.32;3.65;;;;;;;1.53;100.00;103352.50;5093212;28;20075;-55
2022/01/28 07:54:49;;;;;;;20.20;4.03;;;;;;;1.50;100.00;103362.75;5074860;28;20032;-49
2022/01/28 07:57:14;;;;;;;14.27;4.38;;;;;;;1.45;100.00;103359.97;5091584;28;20040;-53
2022/01/28 07:59:40;;;;;;;18.73;4.85;;;;;;;1.43;100.00;103364.16;5092135;28;20034;-51
2022/01/28 08:02:05;;;;;;;24.67;4.53;;;;;;;1.42;100.00;103364.13;5093015;28;20394;-56
2022/01/28 08:04:31;;;;;;;15.63;3.70;;;;;;;1.06;100.00;103306.25;5093349;28;20036;-57
2022/01/28 08:06:56;;;;;;;12.50;3.88;;;;;;;1.40;100.00;103366.63;5093169;28;20048;-54
2022/01/28 08:09:22;;;;;;;13.75;3.58;;;;;;;1.37;100.00;103358.69;5074725;28;20476;-53
2022/01/28 08:11:47;;;;;;;16.70;3.40;;;;;;;1.44;100.00;103376.34;5091572;28;20032;-52
2022/01/28 08:14:14;;;;;;;12.23;3.40;;;;;;;1.40;100.00;103369.22;5092932;28;20070;-58
2022/01/28 08:16:39;;;;;;;19.27;3.60;;;;;;;1.16;100.00;103323.13;5091368;28;20533;-54
2022/01/28 08:19:05;;;;;;;19.10;3.50;;;;;;;1.51;100.00;103381.00;5092733;28;20110;-52
2022/01/28 08:21:30;;;;;;;18.58;4.30;;;;;;;1.57;100.00;103394.25;5091934;28;20028;-52
2022/01/28 08:23:56;;;;;;;17.40;3.88;;;;;;;1.60;100.00;103388.31;5089756;28;20036;-54
2022/01/28 08:26:21;;;;;;;19.95;3.88;;;;;;;1.54;100.00;103377.66;5091001;28;20032;-51
2022/01/28 08:28:47;;;;;;;19.10;3.72;;;;;;;1.26;100.00;103304.56;5091517;28;20097;-56
2022/01/28 08:31:13;;;;;;;16.60;4.30;;;;;;;1.69;100.00;103371.41;5073775;28;20040;-53
2022/01/28 08:33:39;;;;;;;24.02;4.45;;;;;;;1.81;100.00;103376.25;5092481;28;20421;-51
2022/01/28 08:36:05;;;;;;;20.27;4.63;;;;;;;2.04;100.00;103395.44;5092086;28;20032;-57
2022/01/28 08:38:36;;;;;;;20.38;4.55;;;;;;;1.70;100.00;103300.50;5089920;28;20043;-52
2022/01/28 08:41:02;;;;;;;16.67;4.85;;;;;;;2.35;100.00;103403.72;5092261;28;20082;-59
2022/01/28 08:43:28;;;;;;;20.90;4.13;;;;;;;2.51;100.00;103393.09;5091700;28;20039;-58
2022/01/28 08:45:53;;;;;;;20.23;5.88;;;;;;;2.15;100.00;103306.75;5092099;28;20040;-58
2022/01/28 08:48:19;;;;;;;17.98;4.88;;;;;;;2.71;100.00;103381.81;5090928;28;20024;-56
2022/01/28 08:50:44;;;;;;;17.45;4.43;;;;;;;2.84;100.00;103401.38;5090958;28;20048;-60
2022/01/28 08:53:10;;;;;;;26.45;4.40;;;;;;;2.89;100.00;103399.84;5092090;28;20070;-60
2022/01/28 08:55:37;;;;;;;22.17;4.55;;;;;;;2.93;100.00;103400.84;5091025;28;20115;-61
2022/01/28 08:58:04;;;;;;;23.65;4.32;;;;;;;2.48;100.00;103317.59;5092222;28;20043;-59
2022/01/28 09:00:29;;;;;;;19.85;4.20;;;;;;;2.72;100.00;103352.38;5091013;28;20434;-60
2022/01/28 09:02:54;;;;;;;21.52;4.13;;;;;;;3.00;100.00;103395.97;5092134;28;20040;-60
2022/01/28 09:05:20;;;;;;;19.45;4.18;;;;;;;3.04;100.00;103405.66;5091827;28;20063;-61
2022/01/28 09:07:48;;;;;;;17.83;4.57;;;;;;;2.59;100.00;103318.03;5091939;28;20036;-59
2022/01/28 09:10:18;;;;;;;25.15;4.40;;;;;;;3.18;100.00;103419.22;5092126;28;20135;-57
2022/01/28 09:13:09;;;;;;;18.80;4.82;;;;;;;3.21;100.00;103419.34;5091963;28;20074;-58
2022/01/28 09:15:39;;;;;;;21.65;5.03;;;;;;;2.93;100.00;103367.03;5091884;28;20124;-58
2022/01/28 09:18:05;;;;;;;23.83;5.47;;;;;;;3.31;100.00;103424.06;5091834;28;20481;-61
2022/01/28 09:20:32;;;;;;;21.67;5.43;;;;;;;3.40;100.00;103427.00;5091844;28;20036;-60
2022/01/28 09:22:58;;;;;;;18.02;5.13;;;;;;;3.38;100.00;103416.56;5091706;28;20047;-58
2022/01/28 09:25:23;;;;;;;16.30;4.95;;;;;;;3.47;100.00;103430.75;5091978;28;20061;-62
2022/01/28 09:27:49;;;;;;;20.35;4.90;;;;;;;3.66;100.00;103433.19;5090903;28;20237;-61
2022/01/28 09:30:14;;;;;;;20.83;5.15;;;;;;;3.79;100.00;103441.53;5091861;28;20092;-61
2022/01/28 09:32:40;;;;;;;22.92;4.78;;;;;;;3.89;100.00;103433.19;5090540;28;20113;-59
2022/01/28 09:35:06;;;;;;;26.23;5.22;;;;;;;3.53;100.00;103347.66;5092030;28;20398;-61
2022/01/28 09:37:31;;;;;;;22.73;5.07;;;;;;;3.80;100.00;103351.22;5092047;28;20032;-62
2022/01/28 09:39:57;;;;;;;19.52;5.38;;;;;;;4.48;100.00;103414.44;5091921;28;20532;-58
2022/01/28 09:42:27;;;;;;;23.30;6.55;;;;;;;4.83;100.00;103439.06;5090484;28;20364;-60
2022/01/28 09:44:54;;;;;;;24.85;5.13;;;;;;;5.05;100.00;103430.16;5091899;28;20082;-60
2022/01/28 09:47:19;;;;;;;16.92;4.30;;;;;;;5.26;100.00;103429.94;5090328;28;20479;-58
2022/01/28 09:49:45;;;;;;;14.68;3.60;;;;;;;4.94;100.00;103342.81;5091971;28;20149;-59
2022/01/28 09:52:11;;;;;;;19.60;3.95;;;;;;;5.34;100.00;103418.03;5093416;28;20036;-58
2022/01/28 09:54:38;;;;;;;15.52;3.55;;;;;;;5.39;100.00;103408.59;5094422;28;20032;-61
2022/01/28 09:57:09;;;;;;;24.90;4.50;;;;;;;5.32;100.00;103404.03;5093339;28;20042;-62
2022/01/28 09:59:36;;;;;;;17.63;3.22;;;;;;;4.88;100.00;103329.59;5094769;28;20449;-58
2022/01/28 10:02:01;;;;;;;16.30;4.13;;;;;;;5.34;100.00;103408.44;5092871;28;20107;-61
2022/01/28 10:04:27;;;;;;;15.80;3.35;;;;;;;5.38;100.00;103412.03;5091804;28;20123;-59
2022/01/28 10:06:54;;;;;;;11.77;2.38;;;;;;;5.38;100.00;103406.81;5095052;28;20495;-59
2022/01/28 10:09:19;;;;;;;17.15;2.58;;;;;;;5.12;100.00;103356.44;5091809;28;20036;-59
2022/01/28 10:11:48;;;;;;;18.52;1.85;;;;;;;5.42;100.00;103401.75;5095091;28;20081;-60
2022/01/28 10:14:21;;;;;;;14.88;2.75;;;;;;;5.31;100.00;103368.31;5095061;28;20032;-62
2022/01/28 10:17:01;;;;;;;13.93;2.15;;;;;;;5.37;100.00;103364.13;5092657;28;20455;-61
2022/01/28 10:19:40;;;;;;;12.70;2.45;;;;;;;5.58;100.00;103392.59;5094971;28;20024;-61
2022/01/28 10:22:17;;;;;;;18.73;2.83;;;;;;;5.86;100.00;103443.97;5094513;28;20044;-59
2022/01/28 10:24:43;;;;;;;10.13;1.75;;;;;;;5.37;100.00;103351.06;5096515;28;20752;-58
2022/01/28 10:27:09;;;;;;;16.48;2.13;;;;;;;6.04;100.00;103458.44;5093966;28;20036;-60
2022/01/28 10:29:36;;;;;;;14.07;3.05;;;;;;;6.11;100.00;103456.88;5092364;28;20036;-59
2022/01/28 10:32:08;;;;;;;16.00;2.33;;;;;;;5.65;100.00;103357.97;5092067;28;20028;-59
2022/01/28 10:34:37;;;;;;;10.63;1.77;;;;;;;6.26;100.00;103449.44;5093256;28;20078;-60
2022/01/28 10:37:06;;;;;;;9.07;2.03;;;;;;;6.37;100.00;103462.81;5093179;28;20115;-59
2022/01/28 10:39:39;;;;;;;14.10;2.47;;;;;;;6.41;100.00;103455.09;5094722;28;20038;-59
2022/01/28 10:42:05;;;;;;;8.75;2.17;;;;;;;6.46;100.00;103465.66;5094610;28;20031;-60
2022/01/28 10:44:31;;;;;;;9.15;2.00;;;;;;;6.46;100.00;103456.09;5094491;28;20156;-58
2022/01/28 10:47:01;;;;;;;14.27;2.08;;;;;;;6.50;100.00;103451.81;5093373;28;20077;-59
2022/01/28 10:49:32;;;;;;;7.82;1.50;;;;;;;6.26;100.00;103423.28;5094490;28;20037;-59
2022/01/28 10:52:09;;;;;;;17.55;2.50;;;;;;;6.43;100.00;103444.66;5094288;28;20046;-58
2022/01/28 10:54:36;;;;;;;13.50;2.72;;;;;;;6.63;100.00;103454.78;5094350;28;20024;-58
2022/01/28 10:57:02;;;;;;;12.65;2.67;;;;;;;6.71;100.00;103466.31;5094016;28;20505;-59
2022/01/28 10:59:36;;;;;;;19.70;2.35;;;;;;;6.83;100.00;103452.66;5094187;28;20122;-59
2022/01/28 11:02:02;;;;;;;12.38;2.60;;;;;;;6.76;100.00;103440.28;5093721;28;20032;-59
2022/01/28 11:04:28;;;;;;;14.88;2.80;;;;;;;6.39;100.00;103380.03;5094003;28;20528;-58
2022/01/28 11:06:57;;;;;;;15.43;2.65;;;;;;;6.84;100.00;103446.59;5092654;28;20052;-60
2022/01/28 11:09:23;;;;;;;13.95;2.60;;;;;;;6.88;100.00;103448.44;5092875;28;20043;-59
2022/01/28 11:11:50;;;;;;;18.00;2.40;;;;;;;6.92;100.00;103471.22;5094059;28;20032;-59
2022/01/28 11:14:16;;;;;;;12.93;2.80;;;;;;;6.90;100.00;103462.44;5093903;28;20043;-59
2022/01/28 11:16:41;;;;;;;12.68;2.83;;;;;;;6.78;100.00;103430.72;5075750;28;20036;-59
2022/01/28 11:19:10;;;;;;;11.75;2.20;;;;;;;6.94;100.00;103445.06;5093850;28;20032;-60
2022/01/28 11:21:49;;;;;;;16.25;3.45;;;;;;;6.94;100.00;103427.63;5092540;28;20032;-59
2022/01/28 11:24:23;;;;;;;10.60;2.25;;;;;;;7.06;100.00;103433.16;5075520;28;20024;-59
2022/01/28 11:27:04;;;;;;;13.85;2.10;;;;;;;7.19;100.00;103424.72;5093510;28;20031;-60
2022/01/28 11:29:30;;;;;;;14.88;2.45;;;;;;;7.22;100.00;103424.78;5093996;28;20043;-59
2022/01/28 11:31:57;;;;;;;10.18;2.47;;;;;;;7.19;100.00;103411.63;5093619;28;20407;-59
2022/01/28 11:34:22;;;;;;;14.57;2.70;;;;;;;7.31;100.00;103435.47;5092270;28;20036;-59
2022/01/28 11:36:48;;;;;;;9.82;2.20;;;;;;;6.96;100.00;103350.00;5093303;28;20078;-59
2022/01/28 11:39:33;;;;;;;11.60;2.00;;;;;;;7.52;100.00;103435.06;5075130;28;20506;-59
2022/01/28 11:42:17;;;;;;;10.55;2.05;;;;;;;7.74;100.00;103425.88;5093268;28;20542;-59
2022/01/28 11:44:44;;;;;;;14.75;2.90;;;;;;;7.55;100.00;103340.78;5093209;28;20028;-58
2022/01/28 11:47:19;;;;;;;9.20;2.28;;;;;;;7.87;100.00;103350.16;5093118;28;20038;-59
2022/01/28 11:49:54;;;;;;;13.05;2.30;;;;;;;8.26;100.00;103412.91;5093121;28;20389;-59
2022/01/28 11:52:34;;;;;;;14.38;2.88;;;;;;;7.90;100.00;103349.31;5092898;28;20487;-59
2022/01/28 11:55:15;;;;;;;15.43;2.70;;;;;;;8.27;100.00;103435.72;5093226;28;20494;-59
2022/01/28 11:58:01;;;;;;;15.15;3.05;;;;;;;8.19;100.00;103426.78;5092951;28;20475;-58
2022/01/28 12:00:34;;;;;;;12.55;2.28;;;;;;;7.65;100.00;103352.31;5092949;28;20028;-59
2022/01/28 12:03:01;;;;;;;12.93;2.40;;;;;;;7.86;100.00;103408.69;5092762;28;20036;-58
2022/01/28 12:05:29;;;;;;;16.10;3.10;;;;;;;7.70;100.00;103410.97;5093117;28;20028;-58
2022/01/28 12:07:55;;;;;;;16.02;2.50;;;;;;;7.48;100.00;103385.16;5093306;28;20138;-58
2022/01/28 12:10:22;;;;;;;9.75;2.10;;;;;;;7.35;100.00;103361.31;5092807;28;20044;-60
2022/01/28 12:13:01;;;;;;;13.07;2.40;;;;;;;7.14;100.00;103310.22;5091329;28;20032;-59
2022/01/28 12:15:29;;;;;;;13.75;2.97;;;;;;;7.62;100.00;103367.97;5092579;28;20059;-60
2022/01/28 12:18:11;;;;;;;12.38;2.13;;;;;;;7.79;100.00;103370.06;5091459;28;20390;-59
2022/01/28 12:20:39;;;;;;;15.02;3.13;;;;;;;7.84;100.00;103367.56;5091430;28;20031;-60
2022/01/28 12:23:11;;;;;;;16.08;3.00;;;;;;;7.82;100.00;103367.50;5091219;28;20475;-60
2022/01/28 12:25:36;;;;;;;11.48;2.85;;;;;;;7.87;100.00;103368.50;5092337;28;20051;-59
2022/01/28 12:28:14;;;;;;;15.60;3.63;;;;;;;7.96;100.00;103354.66;5092549;28;20032;-58
2022/01/28 12:30:43;;;;;;;13.48;3.40;;;;;;;8.06;100.00;103335.59;5091266;28;20497;-58
2022/01/28 12:33:09;;;;;;;11.48;3.60;;;;;;;8.24;100.00;103346.41;5092476;28;20036;-59
2022/01/28 12:35:37;;;;;;;11.00;3.65;;;;;;;8.22;100.00;103345.53;5091262;28;20039;-59
2022/01/28 12:38:03;;;;;;;11.68;3.90;;;;;;;8.25;100.00;103336.81;5092835;28;20036;-59
2022/01/28 12:40:35;;;;;;;14.50;4.50;;;;;;;8.20;100.00;103331.47;5092344;28;20032;-59
2022/01/28 12:43:03;;;;;;;13.05;4.95;;;;;;;8.25;100.00;103315.81;5092298;28;20127;-59